sensor_id;sensor_type;location;lat;lon;timestamp;temperature;humidity
11609;DHT22;5860;52.018;8.536;2023-10-09T00:01:44;13.60;99.90
11609;DHT22;5860;52.018;8.536;2023-10-09T00:04:13;13.50;99.90
11609;DHT22;5860;52.018;8.536;2023-10-09T00:06:41;13.50;99.90
11609;DHT22;5860;52.018;8.536;2023-10-09T00:12:00;13.50;99.90
11609;DHT22;5860;52.018;8.536;2023-10-09T00:14:30;13.60;99.90
11609;DHT22;5860;52.018;8.536;2023-10-09T00:17:00;13.70;99.90
11609;DHT22;5860;52.018;8.536;2023-10-09T00:19:39;13.60;99.90
11609;DHT22;5860;52.018;8.536;2023-10-09T00:22:09;13.60;99.90
11609;DHT22;5860;52.018;8.536;2023-10-09T00:24:53;13.60;99.90
11609;DHT22;5860;52.018;8.536;2023-10-09T00:27:42;13.50;99.90
11609;DHT22;5860;52.018;8.536;2023-10-09T00:30:14;13.40;99.90
11609;DHT22;5860;52.018;8.536;2023-10-09T00:32:49;13.40;99.90
11609;DHT22;5860;52.018;8.536;2023-10-09T00:35:26;13.30;99.90
11609;DHT22;5860;52.018;8.536;2023-10-09T00:38:25;13.20;99.90
11609;DHT22;5860;52.018;8.536;2023-10-09T00:41:00;13.20;99.90
11609;DHT22;5860;52.018;8.536;2023-10-09T00:43:39;13.30;99.90
11609;DHT22;5860;52.018;8.536;2023-10-09T00:46:10;13.40;99.90
11609;DHT22;5860;52.018;8.536;2023-10-09T00:48:59;13.50;99.90
11609;DHT22;5860;52.018;8.536;2023-10-09T00:51:30;13.60;99.90
11609;DHT22;5860;52.018;8.536;2023-10-09T00:54:05;13.70;99.90
11609;DHT22;5860;52.018;8.536;2023-10-09T00:56:35;13.70;99.90
11609;DHT22;5860;52.018;8.536;2023-10-09T00:59:07;13.70;99.90
11609;DHT22;5860;52.018;8.536;2023-10-09T01:01:47;13.90;99.90
11609;DHT22;5860;52.018;8.536;2023-10-09T01:04:25;13.90;99.90
11609;DHT22;5860;52.018;8.536;2023-10-09T01:06:56;13.90;99.90
11609;DHT22;5860;52.018;8.536;2023-10-09T01:09:36;13.90;99.90
11609;DHT22;5860;52.018;8.536;2023-10-09T01:12:05;14.00;99.90
11609;DHT22;5860;52.018;8.536;2023-10-09T01:14:32;13.90;99.90
11609;DHT22;5860;52.018;8.536;2023-10-09T01:17:04;13.90;99.90
11609;DHT22;5860;52.018;8.536;2023-10-09T01:19:38;13.90;99.90
11609;DHT22;5860;52.018;8.536;2023-10-09T01:22:05;13.90;99.90
11609;DHT22;5860;52.018;8.536;2023-10-09T01:24:40;14.00;99.90
11609;DHT22;5860;52.018;8.536;2023-10-09T01:27:07;14.00;99.90
11609;DHT22;5860;52.018;8.536;2023-10-09T01:29:39;14.00;99.90
11609;DHT22;5860;52.018;8.536;2023-10-09T01:32:08;14.00;99.90
11609;DHT22;5860;52.018;8.536;2023-10-09T01:34:44;14.10;99.90
11609;DHT22;5860;52.018;8.536;2023-10-09T01:37:13;14.00;99.90
11609;DHT22;5860;52.018;8.536;2023-10-09T01:39:51;13.90;99.90
11609;DHT22;5860;52.018;8.536;2023-10-09T01:42:19;13.80;99.90
11609;DHT22;5860;52.018;8.536;2023-10-09T01:45:12;13.70;99.90
11609;DHT22;5860;52.018;8.536;2023-10-09T01:47:42;13.60;99.90
11609;DHT22;5860;52.018;8.536;2023-10-09T01:50:20;13.50;99.90
11609;DHT22;5860;52.018;8.536;2023-10-09T01:53:01;13.50;99.90
11609;DHT22;5860;52.018;8.536;2023-10-09T01:55:30;13.50;99.90
11609;DHT22;5860;52.018;8.536;2023-10-09T01:58:00;13.50;99.90
11609;DHT22;5860;52.018;8.536;2023-10-09T02:00:32;13.50;99.90
11609;DHT22;5860;52.018;8.536;2023-10-09T02:03:09;13.60;99.90
11609;DHT22;5860;52.018;8.536;2023-10-09T02:05:51;13.60;99.90
11609;DHT22;5860;52.018;8.536;2023-10-09T02:08:20;13.70;99.90
11609;DHT22;5860;52.018;8.536;2023-10-09T02:10:54;13.70;99.90
11609;DHT22;5860;52.018;8.536;2023-10-09T02:13:23;13.80;99.90
11609;DHT22;5860;52.018;8.536;2023-10-09T02:15:57;13.70;99.90
11609;DHT22;5860;52.018;8.536;2023-10-09T02:18:42;13.70;99.90
11609;DHT22;5860;52.018;8.536;2023-10-09T02:21:22;13.70;99.90
11609;DHT22;5860;52.018;8.536;2023-10-09T02:24:03;13.70;99.90
11609;DHT22;5860;52.018;8.536;2023-10-09T02:26:53;13.70;99.90
11609;DHT22;5860;52.018;8.536;2023-10-09T02:29:19;13.70;99.90
11609;DHT22;5860;52.018;8.536;2023-10-09T02:31:51;13.70;99.90
11609;DHT22;5860;52.018;8.536;2023-10-09T02:34:18;13.70;99.90
11609;DHT22;5860;52.018;8.536;2023-10-09T02:36:49;13.70;99.90
11609;DHT22;5860;52.018;8.536;2023-10-09T02:39:16;13.70;99.90
11609;DHT22;5860;52.018;8.536;2023-10-09T02:41:57;13.70;99.90
11609;DHT22;5860;52.018;8.536;2023-10-09T02:44:47;13.70;99.90
11609;DHT22;5860;52.018;8.536;2023-10-09T02:47:20;13.80;99.90
11609;DHT22;5860;52.018;8.536;2023-10-09T02:49:51;13.70;99.90
11609;DHT22;5860;52.018;8.536;2023-10-09T02:52:18;13.70;99.90
11609;DHT22;5860;52.018;8.536;2023-10-09T02:54:46;13.60;99.90
11609;DHT22;5860;52.018;8.536;2023-10-09T02:57:14;13.60;99.90
11609;DHT22;5860;52.018;8.536;2023-10-09T02:59:50;13.60;99.90
11609;DHT22;5860;52.018;8.536;2023-10-09T03:05:21;13.60;99.90
11609;DHT22;5860;52.018;8.536;2023-10-09T03:07:47;13.60;99.90
11609;DHT22;5860;52.018;8.536;2023-10-09T03:10:15;13.60;99.90
11609;DHT22;5860;52.018;8.536;2023-10-09T03:15:11;13.70;99.90
11609;DHT22;5860;52.018;8.536;2023-10-09T03:17:39;13.60;99.90
11609;DHT22;5860;52.018;8.536;2023-10-09T03:20:10;13.70;99.90
11609;DHT22;5860;52.018;8.536;2023-10-09T03:22:41;13.70;99.90
11609;DHT22;5860;52.018;8.536;2023-10-09T03:25:09;13.70;99.90
11609;DHT22;5860;52.018;8.536;2023-10-09T03:27:41;13.80;99.90
11609;DHT22;5860;52.018;8.536;2023-10-09T03:30:16;13.80;99.90
11609;DHT22;5860;52.018;8.536;2023-10-09T03:32:45;13.80;99.90
11609;DHT22;5860;52.018;8.536;2023-10-09T03:35:21;13.80;99.90
11609;DHT22;5860;52.018;8.536;2023-10-09T03:37:56;13.80;99.90
11609;DHT22;5860;52.018;8.536;2023-10-09T03:40:26;13.80;99.90
11609;DHT22;5860;52.018;8.536;2023-10-09T03:42:54;13.80;99.90
11609;DHT22;5860;52.018;8.536;2023-10-09T03:45:21;13.80;99.90
11609;DHT22;5860;52.018;8.536;2023-10-09T03:48:02;13.80;99.90
11609;DHT22;5860;52.018;8.536;2023-10-09T03:50:36;13.80;99.90
11609;DHT22;5860;52.018;8.536;2023-10-09T03:53:07;13.80;99.90
11609;DHT22;5860;52.018;8.536;2023-10-09T03:55:35;13.70;99.90
11609;DHT22;5860;52.018;8.536;2023-10-09T03:58:12;13.80;99.90
11609;DHT22;5860;52.018;8.536;2023-10-09T04:00:40;13.70;99.90
11609;DHT22;5860;52.018;8.536;2023-10-09T04:03:14;13.80;99.90
11609;DHT22;5860;52.018;8.536;2023-10-09T04:05:42;13.70;99.90
11609;DHT22;5860;52.018;8.536;2023-10-09T04:08:11;13.80;99.90
11609;DHT22;5860;52.018;8.536;2023-10-09T04:10:55;13.70;99.90
11609;DHT22;5860;52.018;8.536;2023-10-09T04:13:31;13.70;99.90
11609;DHT22;5860;52.018;8.536;2023-10-09T04:16:02;13.80;99.90
11609;DHT22;5860;52.018;8.536;2023-10-09T04:19:02;13.70;99.90
11609;DHT22;5860;52.018;8.536;2023-10-09T04:21:35;13.70;99.90
11609;DHT22;5860;52.018;8.536;2023-10-09T04:24:03;13.80;99.90
11609;DHT22;5860;52.018;8.536;2023-10-09T04:26:50;13.80;99.90
11609;DHT22;5860;52.018;8.536;2023-10-09T04:29:29;13.80;99.90
11609;DHT22;5860;52.018;8.536;2023-10-09T04:32:06;13.90;99.90
11609;DHT22;5860;52.018;8.536;2023-10-09T04:34:45;13.90;99.90
11609;DHT22;5860;52.018;8.536;2023-10-09T04:37:44;13.90;99.90
11609;DHT22;5860;52.018;8.536;2023-10-09T04:40:18;14.00;99.90
11609;DHT22;5860;52.018;8.536;2023-10-09T04:43:04;14.00;99.90
11609;DHT22;5860;52.018;8.536;2023-10-09T04:45:39;14.00;99.90
11609;DHT22;5860;52.018;8.536;2023-10-09T04:48:24;14.10;99.90
11609;DHT22;5860;52.018;8.536;2023-10-09T04:51:05;14.10;99.90
11609;DHT22;5860;52.018;8.536;2023-10-09T04:53:48;14.10;99.90
11609;DHT22;5860;52.018;8.536;2023-10-09T04:56:40;14.10;99.90
11609;DHT22;5860;52.018;8.536;2023-10-09T04:59:19;14.10;99.90
11609;DHT22;5860;52.018;8.536;2023-10-09T05:01:51;14.10;99.90
11609;DHT22;5860;52.018;8.536;2023-10-09T05:04:25;14.10;99.90
11609;DHT22;5860;52.018;8.536;2023-10-09T05:07:07;14.20;99.90
11609;DHT22;5860;52.018;8.536;2023-10-09T05:09:50;14.20;99.90
11609;DHT22;5860;52.018;8.536;2023-10-09T05:12:23;14.20;99.90
11609;DHT22;5860;52.018;8.536;2023-10-09T05:14:55;14.20;99.90
11609;DHT22;5860;52.018;8.536;2023-10-09T05:17:35;14.20;99.90
11609;DHT22;5860;52.018;8.536;2023-10-09T05:20:06;14.10;99.90
11609;DHT22;5860;52.018;8.536;2023-10-09T05:22:49;14.20;99.90
11609;DHT22;5860;52.018;8.536;2023-10-09T05:25:28;14.20;99.90
11609;DHT22;5860;52.018;8.536;2023-10-09T05:28:20;14.20;99.90
11609;DHT22;5860;52.018;8.536;2023-10-09T05:31:17;14.20;99.90
11609;DHT22;5860;52.018;8.536;2023-10-09T05:34:03;14.30;99.90
11609;DHT22;5860;52.018;8.536;2023-10-09T05:36:33;14.20;99.90
11609;DHT22;5860;52.018;8.536;2023-10-09T05:39:02;14.30;99.90
11609;DHT22;5860;52.018;8.536;2023-10-09T05:42:08;14.20;99.90
11609;DHT22;5860;52.018;8.536;2023-10-09T05:44:43;14.30;99.90
11609;DHT22;5860;52.018;8.536;2023-10-09T05:47:53;14.30;99.90
11609;DHT22;5860;52.018;8.536;2023-10-09T05:50:21;14.40;99.90
11609;DHT22;5860;52.018;8.536;2023-10-09T05:52:51;14.40;99.90
11609;DHT22;5860;52.018;8.536;2023-10-09T05:55:19;14.40;99.90
11609;DHT22;5860;52.018;8.536;2023-10-09T05:57:56;14.40;99.90
11609;DHT22;5860;52.018;8.536;2023-10-09T06:00:41;14.50;99.90
11609;DHT22;5860;52.018;8.536;2023-10-09T06:03:28;14.40;99.90
11609;DHT22;5860;52.018;8.536;2023-10-09T06:06:15;14.40;99.90
11609;DHT22;5860;52.018;8.536;2023-10-09T06:09:04;14.50;99.90
11609;DHT22;5860;52.018;8.536;2023-10-09T06:11:57;14.50;99.90
11609;DHT22;5860;52.018;8.536;2023-10-09T06:14:44;14.50;99.90
11609;DHT22;5860;52.018;8.536;2023-10-09T06:17:24;14.50;99.90
11609;DHT22;5860;52.018;8.536;2023-10-09T06:19:54;14.60;99.90
11609;DHT22;5860;52.018;8.536;2023-10-09T06:22:46;14.60;99.90
11609;DHT22;5860;52.018;8.536;2023-10-09T06:25:43;14.60;99.90
11609;DHT22;5860;52.018;8.536;2023-10-09T06:28:19;14.60;99.90
11609;DHT22;5860;52.018;8.536;2023-10-09T06:31:00;14.60;99.90
11609;DHT22;5860;52.018;8.536;2023-10-09T06:33:46;14.50;99.90
11609;DHT22;5860;52.018;8.536;2023-10-09T06:36:42;14.60;99.90
11609;DHT22;5860;52.018;8.536;2023-10-09T06:39:19;14.60;99.90
11609;DHT22;5860;52.018;8.536;2023-10-09T06:42:05;14.50;99.90
11609;DHT22;5860;52.018;8.536;2023-10-09T06:44:55;14.60;99.90
11609;DHT22;5860;52.018;8.536;2023-10-09T06:47:22;14.60;99.90
11609;DHT22;5860;52.018;8.536;2023-10-09T06:49:51;14.60;99.90
11609;DHT22;5860;52.018;8.536;2023-10-09T06:52:53;14.60;99.90
11609;DHT22;5860;52.018;8.536;2023-10-09T06:55:36;14.60;99.90
11609;DHT22;5860;52.018;8.536;2023-10-09T06:58:20;14.60;99.90
11609;DHT22;5860;52.018;8.536;2023-10-09T07:00:55;14.60;99.90
11609;DHT22;5860;52.018;8.536;2023-10-09T07:03:26;14.60;99.90
11609;DHT22;5860;52.018;8.536;2023-10-09T07:06:10;14.50;99.90
11609;DHT22;5860;52.018;8.536;2023-10-09T07:09:13;14.50;99.90
11609;DHT22;5860;52.018;8.536;2023-10-09T07:11:46;14.50;99.90
11609;DHT22;5860;52.018;8.536;2023-10-09T07:14:20;14.60;99.90
11609;DHT22;5860;52.018;8.536;2023-10-09T07:17:04;14.60;99.90
11609;DHT22;5860;52.018;8.536;2023-10-09T07:19:43;14.60;99.90
11609;DHT22;5860;52.018;8.536;2023-10-09T07:22:11;14.70;99.90
11609;DHT22;5860;52.018;8.536;2023-10-09T07:24:54;14.70;99.90
11609;DHT22;5860;52.018;8.536;2023-10-09T07:27:29;14.70;99.90
11609;DHT22;5860;52.018;8.536;2023-10-09T07:30:18;14.70;99.90
11609;DHT22;5860;52.018;8.536;2023-10-09T07:33:02;14.70;99.90
11609;DHT22;5860;52.018;8.536;2023-10-09T07:35:43;14.80;99.90
11609;DHT22;5860;52.018;8.536;2023-10-09T07:38:21;14.90;99.90
11609;DHT22;5860;52.018;8.536;2023-10-09T07:41:02;14.90;99.90
11609;DHT22;5860;52.018;8.536;2023-10-09T07:43:33;14.90;99.90
11609;DHT22;5860;52.018;8.536;2023-10-09T07:46:17;14.90;99.90
11609;DHT22;5860;52.018;8.536;2023-10-09T07:49:02;14.90;99.90
11609;DHT22;5860;52.018;8.536;2023-10-09T07:51:39;14.90;99.90
11609;DHT22;5860;52.018;8.536;2023-10-09T07:54:10;14.80;99.90
11609;DHT22;5860;52.018;8.536;2023-10-09T07:56:43;14.90;99.90
11609;DHT22;5860;52.018;8.536;2023-10-09T07:59:14;14.90;99.90
11609;DHT22;5860;52.018;8.536;2023-10-09T08:01:49;15.00;99.90
11609;DHT22;5860;52.018;8.536;2023-10-09T08:04:22;15.00;99.90
11609;DHT22;5860;52.018;8.536;2023-10-09T08:07:09;15.00;99.90
11609;DHT22;5860;52.018;8.536;2023-10-09T08:10:18;15.00;99.90
11609;DHT22;5860;52.018;8.536;2023-10-09T08:12:46;15.00;99.90
11609;DHT22;5860;52.018;8.536;2023-10-09T08:15:17;15.00;99.90
11609;DHT22;5860;52.018;8.536;2023-10-09T08:17:52;15.00;99.90
11609;DHT22;5860;52.018;8.536;2023-10-09T08:20:27;15.00;99.90
11609;DHT22;5860;52.018;8.536;2023-10-09T08:22:55;15.00;99.90
11609;DHT22;5860;52.018;8.536;2023-10-09T08:25:24;15.10;99.90
11609;DHT22;5860;52.018;8.536;2023-10-09T08:28:03;15.10;99.90
11609;DHT22;5860;52.018;8.536;2023-10-09T08:30:56;15.20;99.90
11609;DHT22;5860;52.018;8.536;2023-10-09T08:33:23;15.20;99.90
11609;DHT22;5860;52.018;8.536;2023-10-09T08:35:56;15.30;99.90
11609;DHT22;5860;52.018;8.536;2023-10-09T08:38:32;15.30;99.90
11609;DHT22;5860;52.018;8.536;2023-10-09T08:41:12;15.30;99.90
11609;DHT22;5860;52.018;8.536;2023-10-09T08:43:51;15.40;99.90
11609;DHT22;5860;52.018;8.536;2023-10-09T08:46:20;15.20;99.90
11609;DHT22;5860;52.018;8.536;2023-10-09T08:48:48;15.30;99.90
11609;DHT22;5860;52.018;8.536;2023-10-09T08:51:17;15.30;99.90
11609;DHT22;5860;52.018;8.536;2023-10-09T08:53:44;15.30;99.90
11609;DHT22;5860;52.018;8.536;2023-10-09T08:56:13;15.40;99.90
11609;DHT22;5860;52.018;8.536;2023-10-09T08:58:52;15.40;99.90
11609;DHT22;5860;52.018;8.536;2023-10-09T09:01:21;15.40;99.90
11609;DHT22;5860;52.018;8.536;2023-10-09T09:03:49;15.40;99.90
11609;DHT22;5860;52.018;8.536;2023-10-09T09:06:21;15.50;99.90
11609;DHT22;5860;52.018;8.536;2023-10-09T09:08:49;15.60;99.90
11609;DHT22;5860;52.018;8.536;2023-10-09T09:11:21;15.50;99.90
11609;DHT22;5860;52.018;8.536;2023-10-09T09:14:05;15.60;99.90
11609;DHT22;5860;52.018;8.536;2023-10-09T09:16:34;15.60;99.90
11609;DHT22;5860;52.018;8.536;2023-10-09T09:19:05;15.70;99.90
11609;DHT22;5860;52.018;8.536;2023-10-09T09:21:36;15.70;99.90
11609;DHT22;5860;52.018;8.536;2023-10-09T09:24:09;15.70;99.90
11609;DHT22;5860;52.018;8.536;2023-10-09T09:26:57;15.60;99.90
11609;DHT22;5860;52.018;8.536;2023-10-09T09:32:07;15.60;99.90
11609;DHT22;5860;52.018;8.536;2023-10-09T09:34:49;15.70;99.90
11609;DHT22;5860;52.018;8.536;2023-10-09T09:37:22;15.70;99.90
11609;DHT22;5860;52.018;8.536;2023-10-09T09:40:00;15.70;99.90
11609;DHT22;5860;52.018;8.536;2023-10-09T09:42:49;15.60;99.90
11609;DHT22;5860;52.018;8.536;2023-10-09T09:45:16;15.60;99.90
11609;DHT22;5860;52.018;8.536;2023-10-09T09:47:44;15.60;99.90
11609;DHT22;5860;52.018;8.536;2023-10-09T09:50:19;15.70;99.90
11609;DHT22;5860;52.018;8.536;2023-10-09T09:52:55;15.70;99.90
11609;DHT22;5860;52.018;8.536;2023-10-09T09:55:33;15.70;99.90
11609;DHT22;5860;52.018;8.536;2023-10-09T09:58:02;15.70;99.90
11609;DHT22;5860;52.018;8.536;2023-10-09T10:00:35;15.80;99.90
11609;DHT22;5860;52.018;8.536;2023-10-09T10:05:46;15.80;99.90
11609;DHT22;5860;52.018;8.536;2023-10-09T10:08:17;15.80;99.90
11609;DHT22;5860;52.018;8.536;2023-10-09T10:10:48;15.90;99.90
11609;DHT22;5860;52.018;8.536;2023-10-09T10:16:13;15.90;99.90
11609;DHT22;5860;52.018;8.536;2023-10-09T10:19:06;16.00;99.90
11609;DHT22;5860;52.018;8.536;2023-10-09T10:21:45;16.10;99.90
11609;DHT22;5860;52.018;8.536;2023-10-09T10:29:38;16.20;99.90
11609;DHT22;5860;52.018;8.536;2023-10-09T10:32:08;16.30;99.90
11609;DHT22;5860;52.018;8.536;2023-10-09T10:34:53;16.30;99.90
11609;DHT22;5860;52.018;8.536;2023-10-09T10:40:11;16.40;99.90
11609;DHT22;5860;52.018;8.536;2023-10-09T10:43:01;16.40;99.90
11609;DHT22;5860;52.018;8.536;2023-10-09T10:45:40;16.50;99.90
11609;DHT22;5860;52.018;8.536;2023-10-09T10:48:11;16.50;99.90
11609;DHT22;5860;52.018;8.536;2023-10-09T10:51:04;16.50;99.90
11609;DHT22;5860;52.018;8.536;2023-10-09T10:53:31;16.50;99.90
11609;DHT22;5860;52.018;8.536;2023-10-09T10:56:14;16.50;99.90
11609;DHT22;5860;52.018;8.536;2023-10-09T10:58:42;16.50;99.90
11609;DHT22;5860;52.018;8.536;2023-10-09T11:01:35;16.40;99.90
11609;DHT22;5860;52.018;8.536;2023-10-09T11:04:35;16.40;99.90
11609;DHT22;5860;52.018;8.536;2023-10-09T11:07:05;16.30;99.90
11609;DHT22;5860;52.018;8.536;2023-10-09T11:09:50;16.20;99.90
11609;DHT22;5860;52.018;8.536;2023-10-09T11:12:45;16.20;99.90
11609;DHT22;5860;52.018;8.536;2023-10-09T11:15:33;16.10;99.90
11609;DHT22;5860;52.018;8.536;2023-10-09T11:18:24;16.00;99.90
11609;DHT22;5860;52.018;8.536;2023-10-09T11:20:53;15.90;99.90
11609;DHT22;5860;52.018;8.536;2023-10-09T11:23:29;15.90;99.90
11609;DHT22;5860;52.018;8.536;2023-10-09T11:26:06;15.90;99.90
11609;DHT22;5860;52.018;8.536;2023-10-09T11:29:14;15.90;99.90
11609;DHT22;5860;52.018;8.536;2023-10-09T11:34:28;15.90;99.90
11609;DHT22;5860;52.018;8.536;2023-10-09T11:39:39;16.00;99.90
11609;DHT22;5860;52.018;8.536;2023-10-09T11:42:27;16.00;99.90
11609;DHT22;5860;52.018;8.536;2023-10-09T11:45:19;16.00;99.90
11609;DHT22;5860;52.018;8.536;2023-10-09T11:47:47;16.20;99.90
11609;DHT22;5860;52.018;8.536;2023-10-09T11:50:46;16.20;99.90
11609;DHT22;5860;52.018;8.536;2023-10-09T11:53:39;16.30;99.90
11609;DHT22;5860;52.018;8.536;2023-10-09T11:56:06;16.20;99.90
11609;DHT22;5860;52.018;8.536;2023-10-09T11:58:36;16.20;99.90
11609;DHT22;5860;52.018;8.536;2023-10-09T12:01:12;16.20;99.90
11609;DHT22;5860;52.018;8.536;2023-10-09T12:03:50;16.20;99.90
11609;DHT22;5860;52.018;8.536;2023-10-09T12:06:20;16.20;99.90
11609;DHT22;5860;52.018;8.536;2023-10-09T12:08:50;16.30;99.90
11609;DHT22;5860;52.018;8.536;2023-10-09T12:11:17;16.40;99.90
11609;DHT22;5860;52.018;8.536;2023-10-09T12:13:56;16.40;99.90
11609;DHT22;5860;52.018;8.536;2023-10-09T12:16:24;16.50;99.90
11609;DHT22;5860;52.018;8.536;2023-10-09T12:18:56;16.60;99.90
11609;DHT22;5860;52.018;8.536;2023-10-09T12:21:23;16.50;99.90
11609;DHT22;5860;52.018;8.536;2023-10-09T12:23:50;16.70;99.90
11609;DHT22;5860;52.018;8.536;2023-10-09T12:26:17;16.60;99.90
11609;DHT22;5860;52.018;8.536;2023-10-09T12:28:45;16.60;99.90
11609;DHT22;5860;52.018;8.536;2023-10-09T12:31:14;16.50;99.90
11609;DHT22;5860;52.018;8.536;2023-10-09T12:33:47;16.50;99.90
11609;DHT22;5860;52.018;8.536;2023-10-09T12:36:14;16.50;99.90
11609;DHT22;5860;52.018;8.536;2023-10-09T12:38:47;16.50;99.90
11609;DHT22;5860;52.018;8.536;2023-10-09T12:41:20;16.60;99.90
11609;DHT22;5860;52.018;8.536;2023-10-09T12:43:54;16.60;99.90
11609;DHT22;5860;52.018;8.536;2023-10-09T12:46:22;16.70;99.90
11609;DHT22;5860;52.018;8.536;2023-10-09T12:48:59;16.80;99.90
11609;DHT22;5860;52.018;8.536;2023-10-09T12:51:28;16.80;99.90
11609;DHT22;5860;52.018;8.536;2023-10-09T12:53:57;16.80;99.90
11609;DHT22;5860;52.018;8.536;2023-10-09T12:56:25;16.70;99.90
11609;DHT22;5860;52.018;8.536;2023-10-09T12:59:05;16.70;99.90
11609;DHT22;5860;52.018;8.536;2023-10-09T13:01:33;16.80;99.90
11609;DHT22;5860;52.018;8.536;2023-10-09T13:04:13;16.90;99.90
11609;DHT22;5860;52.018;8.536;2023-10-09T13:06:45;16.90;99.90
11609;DHT22;5860;52.018;8.536;2023-10-09T13:09:14;16.90;99.90
11609;DHT22;5860;52.018;8.536;2023-10-09T13:11:42;16.80;99.90
11609;DHT22;5860;52.018;8.536;2023-10-09T13:14:10;16.90;99.90
11609;DHT22;5860;52.018;8.536;2023-10-09T13:16:49;16.90;99.90
11609;DHT22;5860;52.018;8.536;2023-10-09T13:19:20;16.80;99.90
11609;DHT22;5860;52.018;8.536;2023-10-09T13:21:51;16.70;99.90
11609;DHT22;5860;52.018;8.536;2023-10-09T13:24:18;16.70;99.90
11609;DHT22;5860;52.018;8.536;2023-10-09T13:26:51;16.60;99.90
11609;DHT22;5860;52.018;8.536;2023-10-09T13:29:19;16.70;99.90
11609;DHT22;5860;52.018;8.536;2023-10-09T13:31:49;16.70;99.90
11609;DHT22;5860;52.018;8.536;2023-10-09T13:34:19;16.70;99.90
11609;DHT22;5860;52.018;8.536;2023-10-09T13:36:46;16.70;99.90
11609;DHT22;5860;52.018;8.536;2023-10-09T13:39:20;16.70;99.90
11609;DHT22;5860;52.018;8.536;2023-10-09T13:41:57;16.60;99.90
11609;DHT22;5860;52.018;8.536;2023-10-09T13:44:30;16.70;99.90
11609;DHT22;5860;52.018;8.536;2023-10-09T13:47:08;16.70;99.90
11609;DHT22;5860;52.018;8.536;2023-10-09T13:49:47;16.60;99.90
11609;DHT22;5860;52.018;8.536;2023-10-09T13:52:18;16.60;99.90
11609;DHT22;5860;52.018;8.536;2023-10-09T13:54:46;16.70;99.90
11609;DHT22;5860;52.018;8.536;2023-10-09T13:57:16;16.70;99.90
11609;DHT22;5860;52.018;8.536;2023-10-09T13:59:43;16.70;99.90
11609;DHT22;5860;52.018;8.536;2023-10-09T14:02:17;16.80;99.90
11609;DHT22;5860;52.018;8.536;2023-10-09T14:04:46;16.80;99.90
11609;DHT22;5860;52.018;8.536;2023-10-09T14:07:14;16.80;99.90
11609;DHT22;5860;52.018;8.536;2023-10-09T14:09:44;16.80;99.90
11609;DHT22;5860;52.018;8.536;2023-10-09T14:12:22;16.80;99.90
11609;DHT22;5860;52.018;8.536;2023-10-09T14:14:51;16.80;99.90
11609;DHT22;5860;52.018;8.536;2023-10-09T14:17:21;16.80;99.90
11609;DHT22;5860;52.018;8.536;2023-10-09T14:19:53;16.80;99.90
11609;DHT22;5860;52.018;8.536;2023-10-09T14:22:25;16.70;99.90
11609;DHT22;5860;52.018;8.536;2023-10-09T14:24:54;16.70;99.90
11609;DHT22;5860;52.018;8.536;2023-10-09T14:27:27;16.70;99.90
11609;DHT22;5860;52.018;8.536;2023-10-09T14:29:57;16.80;99.90
11609;DHT22;5860;52.018;8.536;2023-10-09T14:32:27;16.70;99.90
11609;DHT22;5860;52.018;8.536;2023-10-09T14:35:01;16.70;99.90
11609;DHT22;5860;52.018;8.536;2023-10-09T14:37:29;16.80;99.90
11609;DHT22;5860;52.018;8.536;2023-10-09T14:39:56;16.80;99.90
11609;DHT22;5860;52.018;8.536;2023-10-09T14:42:42;16.80;99.90
11609;DHT22;5860;52.018;8.536;2023-10-09T14:45:12;16.90;99.90
11609;DHT22;5860;52.018;8.536;2023-10-09T14:47:44;17.00;99.90
11609;DHT22;5860;52.018;8.536;2023-10-09T14:50:14;17.20;99.90
11609;DHT22;5860;52.018;8.536;2023-10-09T14:52:41;17.20;99.90
11609;DHT22;5860;52.018;8.536;2023-10-09T14:55:08;17.20;99.90
11609;DHT22;5860;52.018;8.536;2023-10-09T14:57:36;17.30;99.90
11609;DHT22;5860;52.018;8.536;2023-10-09T15:00:03;17.30;99.90
11609;DHT22;5860;52.018;8.536;2023-10-09T15:02:40;17.20;99.90
11609;DHT22;5860;52.018;8.536;2023-10-09T15:05:07;17.10;99.90
11609;DHT22;5860;52.018;8.536;2023-10-09T15:07:38;17.10;99.90
11609;DHT22;5860;52.018;8.536;2023-10-09T15:10:11;17.20;99.90
11609;DHT22;5860;52.018;8.536;2023-10-09T15:12:42;17.30;99.90
11609;DHT22;5860;52.018;8.536;2023-10-09T15:15:10;17.30;99.90
11609;DHT22;5860;52.018;8.536;2023-10-09T15:17:41;17.40;99.90
11609;DHT22;5860;52.018;8.536;2023-10-09T15:20:13;17.40;99.90
11609;DHT22;5860;52.018;8.536;2023-10-09T15:22:44;17.40;99.90
11609;DHT22;5860;52.018;8.536;2023-10-09T15:25:13;17.40;99.90
11609;DHT22;5860;52.018;8.536;2023-10-09T15:27:42;17.40;99.90
11609;DHT22;5860;52.018;8.536;2023-10-09T15:30:09;17.40;99.90
11609;DHT22;5860;52.018;8.536;2023-10-09T15:32:42;17.30;99.90
11609;DHT22;5860;52.018;8.536;2023-10-09T15:35:10;17.30;99.90
11609;DHT22;5860;52.018;8.536;2023-10-09T15:37:37;17.30;99.90
11609;DHT22;5860;52.018;8.536;2023-10-09T15:40:07;17.30;99.90
11609;DHT22;5860;52.018;8.536;2023-10-09T15:42:45;17.30;99.90
11609;DHT22;5860;52.018;8.536;2023-10-09T15:45:18;17.30;99.90
11609;DHT22;5860;52.018;8.536;2023-10-09T15:47:48;17.30;99.90
11609;DHT22;5860;52.018;8.536;2023-10-09T15:50:18;17.20;99.90
11609;DHT22;5860;52.018;8.536;2023-10-09T15:52:45;17.20;99.90
11609;DHT22;5860;52.018;8.536;2023-10-09T15:55:16;17.20;99.90
11609;DHT22;5860;52.018;8.536;2023-10-09T15:57:47;17.20;99.90
11609;DHT22;5860;52.018;8.536;2023-10-09T16:00:25;17.20;99.90
11609;DHT22;5860;52.018;8.536;2023-10-09T16:02:56;17.20;99.90
11609;DHT22;5860;52.018;8.536;2023-10-09T16:05:23;17.20;99.90
11609;DHT22;5860;52.018;8.536;2023-10-09T16:07:53;17.30;99.90
11609;DHT22;5860;52.018;8.536;2023-10-09T16:10:21;17.30;99.90
11609;DHT22;5860;52.018;8.536;2023-10-09T16:12:49;17.30;99.90
11609;DHT22;5860;52.018;8.536;2023-10-09T16:15:18;17.10;99.90
11609;DHT22;5860;52.018;8.536;2023-10-09T16:17:48;17.10;99.90
11609;DHT22;5860;52.018;8.536;2023-10-09T16:20:25;17.10;99.90
11609;DHT22;5860;52.018;8.536;2023-10-09T16:22:53;17.10;99.90
11609;DHT22;5860;52.018;8.536;2023-10-09T16:25:20;17.10;99.90
11609;DHT22;5860;52.018;8.536;2023-10-09T16:27:50;17.10;99.90
11609;DHT22;5860;52.018;8.536;2023-10-09T16:30:19;17.10;99.90
11609;DHT22;5860;52.018;8.536;2023-10-09T16:32:48;17.10;99.90
11609;DHT22;5860;52.018;8.536;2023-10-09T16:35:15;17.10;99.90
11609;DHT22;5860;52.018;8.536;2023-10-09T16:37:43;17.10;99.90
11609;DHT22;5860;52.018;8.536;2023-10-09T16:40:10;17.00;99.90
11609;DHT22;5860;52.018;8.536;2023-10-09T16:42:40;17.00;99.90
11609;DHT22;5860;52.018;8.536;2023-10-09T16:45:10;17.00;99.90
11609;DHT22;5860;52.018;8.536;2023-10-09T16:47:47;17.00;99.90
11609;DHT22;5860;52.018;8.536;2023-10-09T16:50:15;17.00;99.90
11609;DHT22;5860;52.018;8.536;2023-10-09T16:52:45;17.00;99.90
11609;DHT22;5860;52.018;8.536;2023-10-09T16:55:12;17.00;99.90
11609;DHT22;5860;52.018;8.536;2023-10-09T16:57:42;17.00;99.90
11609;DHT22;5860;52.018;8.536;2023-10-09T17:00:19;17.00;99.90
11609;DHT22;5860;52.018;8.536;2023-10-09T17:02:57;17.00;99.90
11609;DHT22;5860;52.018;8.536;2023-10-09T17:05:28;17.00;99.90